Tuesday, September 25, 2018, 7:37 PM EDT
Back to Local

KLBE, Latrobe / Westmorland

Location: Latrobe, PA, United States Lat: 40.283
Local Time: 7:37 PM EDT (23:37 GMT) Lon: -79.4
Time Zone: US/Eastern Elev: 1184 ft

Show me the last for .
Show Decoded

2018-09-25 18:50 METAR KLBE 252250Z 21005KT 10SM SCT060 21/21 A3008 =
2018-09-25 17:50 METAR KLBE 252150Z 23006KT 4SM -RA SCT018 BKN039 21/21 A3010 =
2018-09-25 16:50 METAR KLBE 252050Z 21010KT 5SM -RA BKN039 21/21 A3011 =
2018-09-25 15:50 METAR KLBE 251950Z 21010KT 3SM -RA SCT013 OVC030 21/21 A3014 =
2018-09-25 15:15 METAR KLBE 251915Z 22017KT 2SM -RA OVC020 22/21 A3014 =
2018-09-25 14:47 METAR KLBE 251847Z 22010KT 7SM -RA OVC025 23/20 A3013 =
2018-09-25 13:47 METAR KLBE 251747Z 21012G20KT 10SM SCT025 BKN040 24/20 A3014 =
2018-09-25 12:47 METAR KLBE 251647Z 18008KT 10SM OVC035 22/20 A3016 =
2018-09-25 11:47 METAR KLBE 251547Z 18008KT 10SM SCT022 BKN030 20/20 A3017 =
2018-09-25 10:45 METAR KLBE 251445Z 21005KT 6SM BR BKN020 OVC042 20/20 A3019 =
2018-09-25 09:45 METAR KLBE 251345Z 20010KT 2SM -RA BR BKN018 OVC024 19/19 A3019 =
2018-09-25 09:40 METAR KLBE 251340Z 21010KT 2 1/2SM -RA BR BKN018 OVC024 19/19 A3019 =
2018-09-25 08:45 METAR KLBE 251245Z 20010KT 4SM -RA BR SCT022 OVC030 18/18 A3018 =
2018-09-25 08:05 METAR KLBE 251205Z 18006KT 2 1/2SM -RA BR BKN025 OVC035 18/18 A3019 =
2018-09-25 07:50 METAR KLBE 251150Z 18010KT 8SM OVC028 18/17 A3019 =
2018-09-25 06:50 METAR KLBE 251050Z 21012KT 4SM -RA FEW020 BKN032 OVC045 18/17 A3019 =
2018-09-25 05:55 METAR KLBE 250955Z AUTO 00000KT 9SM -RA BKN034 BKN041 BKN046 17/17 A3018 RMK AO2
                 =
2018-09-25 05:35 METAR KLBE 250935Z AUTO VRB03KT 7SM -RA SCT030 BKN034 BKN043 17/17 A3019 RMK AO2
                 =
2018-09-25 05:15 METAR KLBE 250915Z AUTO 00000KT 8SM -RA SCT001 BKN035 OVC043 17/17 A3019 RMK AO2
                 =
2018-09-25 04:55 METAR KLBE 250855Z AUTO VRB03KT 4SM +RA BKN001 BKN013 OVC034 16/17 A3019 RMK AO2
                 =
2018-09-25 04:35 METAR KLBE 250835Z AUTO 22004KT 4SM RA FEW001 BKN033 OVC047 16/16 A3020 RMK AO2
                 =
2018-09-25 04:15 METAR KLBE 250815Z AUTO VRB03KT 7SM -DZ FEW002 SCT041 BKN046 16/16 A3020 RMK AO2
                 =
2018-09-25 03:35 METAR KLBE 250735Z AUTO 26005G13KT 8SM -RA FEW041 SCT049 OVC060 17/16 A3021 RMK
                 AO2 =
2018-09-25 03:15 METAR KLBE 250715Z AUTO 12008G20KT 070V150 9SM -RA FEW027 SCT047 OVC060 17/16
                 A3019 RMK AO2 =
2018-09-25 02:55 METAR KLBE 250655Z AUTO 12013G19KT 9SM FEW035 SCT048 OVC060 17/15 A3019 RMK AO2
                 =
2018-09-25 02:35 METAR KLBE 250635Z AUTO 12012G18KT 9SM FEW045 FEW050 OVC060 16/15 A3020 RMK AO2
                 =
2018-09-25 02:15 METAR KLBE 250615Z AUTO 12014G21KT 9SM -RA FEW042 BKN060 OVC070 17/15 A3020 RMK
                 AO2 =
2018-09-25 01:55 METAR KLBE 250555Z AUTO 12010KT 10SM -DZ OVC065 17/15 A3021 RMK AO2 =
2018-09-25 01:15 METAR KLBE 250515Z AUTO VRB04KT 10SM -DZ OVC070 16/15 A3022 RMK AO2 =
2018-09-25 00:55 METAR KLBE 250455Z AUTO VRB05KT 10SM FEW048 BKN070 17/15 A3024 RMK AO2 =
2018-09-25 00:35 METAR KLBE 250435Z AUTO VRB05G13KT 10SM -DZ OVC070 17/15 A3024 RMK AO2 =
2018-09-25 00:15 METAR KLBE 250415Z AUTO VRB03G13KT 10SM BKN065 BKN080 17/15 A3024 RMK AO2 =
2018-09-24 23:55 METAR KLBE 250355Z AUTO VRB05G16KT 10SM BKN070 OVC080 16/15 A3024 RMK AO2 =
2018-09-24 23:35 METAR KLBE 250335Z AUTO 12007G15KT 080V160 9SM -RA OVC070 16/15 A3024 RMK AO2 =
2018-09-24 23:15 METAR KLBE 250315Z AUTO 11007G15KT 050V170 7SM -RA OVC060 17/15 A3025 RMK AO2 =
2018-09-24 22:55 METAR KLBE 250255Z AUTO 08008G13KT 360V110 10SM -RA FEW023 BKN065 17/15 A3026
                 RMK AO2 =
2018-09-24 22:35 METAR KLBE 250235Z AUTO VRB05G12KT 10SM -DZ BKN065 BKN090 17/15 A3026 RMK AO2 =
2018-09-24 22:15 METAR KLBE 250215Z AUTO 12011G24KT 090V160 10SM -DZ FEW047 SCT070 SCT090 17/15
                 A3024 RMK AO2 =
2018-09-24 21:50 METAR KLBE 250150Z 15010KT 10SM SCT060 17/15 A3025 =
2018-09-24 20:50 METAR KLBE 250050Z 17008KT 8SM -DZ BKN060 17/16 A3024 =
2018-09-24 19:50 METAR KLBE 242350Z 17008KT 4SM -RA BKN040 17/16 A3025 =

Support USWX by starting your Amazon purchase here.